PILOTS ONLINE: 430    ATC ONLINE: 73

CYVR

Vancouver International Airport

Location

IATA YVR
City Vancouver
Country  Canada
Latitude 49° 11' 38" N
Longitude 123° 11' 2" W
Elevation 14 ft
Type Large Airport

Map

Weather

METAR
2014/09/17 15:00
CYVR 171500Z 10005KT 15SM FEW085 SCT097 BKN110 OVC120 16/14 A2979 RMK AC1AC3AC2AC2 SLP087 DENSITY ALT 200FT
TAF
2014/09/17 15:45
TAF TAF CYVR 171442Z 1715/1818 11007KT P6SM -SHRA BKN120 OVC160 
     FM171800 17008KT P6SM OVC090 
      TEMPO 1718/1806 P6SM -SHRA 
     FM180600 VRB03KT P6SM BKN080 
      TEMPO 1806/1818 P6SM -SHRA 
      BECMG 1810/1812 11008KT 
      RMK NXT FCST BY 171800Z

Runways

08L/26R 9940 ft / 200 ft
08R/26L 11500 ft / 200 ft
12/30 7300 ft / 200 ft
XX/26A 3500 ft / 75 ft

Outbound flights

Callsign Flying to Pilot ATD/STD ETA Aircraft
MJT1980  UMKK - Kaliningrad
Russian Federation
Oscar Almeida
1257427
10:29 21:07 A346
DAL1125  KSNA - Santa Ana
United States
Soon Ho Lee
1067639
14:53 16:08 B738

Inbound flights

Callsign Flying from Pilot ATD ETA Aircraft
BAW406  EGLL - London
United Kingdom
Richard McDonald Woods
843615
07:27 16:21 B77W
ACA855  EGLL - London
United Kingdom
Karl Mathias Moberg
908962
09:27 18:26 B77W
ACA004  RJAA - Tokyo
Japan
Daniel Lopez
1117139
12:29 22:47 B763